sensor_id;sensor_type;location;lat;lon;timestamp;temperature;humidity
69776;DHT22;57049;51.450;-2.516;2022-07-24T00:00:06;17.77;89.19
69776;DHT22;57049;51.450;-2.516;2022-07-24T00:02:32;17.70;89.80
69776;DHT22;57049;51.450;-2.516;2022-07-24T00:04:57;17.66;90.97
69776;DHT22;57049;51.450;-2.516;2022-07-24T00:07:25;17.63;91.20
69776;DHT22;57049;51.450;-2.516;2022-07-24T00:09:51;17.54;91.90
69776;DHT22;57049;51.450;-2.516;2022-07-24T00:12:16;17.46;92.47
69776;DHT22;57049;51.450;-2.516;2022-07-24T00:14:42;17.45;92.07
69776;DHT22;57049;51.450;-2.516;2022-07-24T00:17:07;17.49;92.71
69776;DHT22;57049;51.450;-2.516;2022-07-24T00:19:33;17.46;92.71
69776;DHT22;57049;51.450;-2.516;2022-07-24T00:21:58;17.49;92.79
69776;DHT22;57049;51.450;-2.516;2022-07-24T00:24:25;17.47;91.98
69776;DHT22;57049;51.450;-2.516;2022-07-24T00:26:50;17.45;92.19
69776;DHT22;57049;51.450;-2.516;2022-07-24T00:29:16;17.43;92.15
69776;DHT22;57049;51.450;-2.516;2022-07-24T00:31:42;17.42;91.86
69776;DHT22;57049;51.450;-2.516;2022-07-24T00:34:08;17.43;91.90
69776;DHT22;57049;51.450;-2.516;2022-07-24T00:36:33;17.39;91.78
69776;DHT22;57049;51.450;-2.516;2022-07-24T00:38:58;17.36;92.53
69776;DHT22;57049;51.450;-2.516;2022-07-24T00:41:24;17.47;92.08
69776;DHT22;57049;51.450;-2.516;2022-07-24T00:46:24;17.42;92.44
69776;DHT22;57049;51.450;-2.516;2022-07-24T00:48:49;17.42;92.14
69776;DHT22;57049;51.450;-2.516;2022-07-24T00:51:15;17.46;92.15
69776;DHT22;57049;51.450;-2.516;2022-07-24T00:53:40;17.45;92.20
69776;DHT22;57049;51.450;-2.516;2022-07-24T00:56:06;17.43;92.43
69776;DHT22;57049;51.450;-2.516;2022-07-24T00:58:32;17.49;91.84
69776;DHT22;57049;51.450;-2.516;2022-07-24T01:00:57;17.50;91.34
69776;DHT22;57049;51.450;-2.516;2022-07-24T01:03:23;17.45;92.00
69776;DHT22;57049;51.450;-2.516;2022-07-24T01:05:48;17.45;91.96
69776;DHT22;57049;51.450;-2.516;2022-07-24T01:08:13;17.49;92.02
69776;DHT22;57049;51.450;-2.516;2022-07-24T01:10:40;17.46;92.17
69776;DHT22;57049;51.450;-2.516;2022-07-24T01:13:05;17.52;92.26
69776;DHT22;57049;51.450;-2.516;2022-07-24T01:15:31;17.47;92.85
69776;DHT22;57049;51.450;-2.516;2022-07-24T01:17:57;17.43;92.77
69776;DHT22;57049;51.450;-2.516;2022-07-24T01:20:22;17.43;92.69
69776;DHT22;57049;51.450;-2.516;2022-07-24T01:22:48;17.40;93.47
69776;DHT22;57049;51.450;-2.516;2022-07-24T01:25:13;17.40;93.20
69776;DHT22;57049;51.450;-2.516;2022-07-24T01:27:38;17.40;93.03
69776;DHT22;57049;51.450;-2.516;2022-07-24T01:30:04;17.35;93.39
69776;DHT22;57049;51.450;-2.516;2022-07-24T01:32:30;17.39;92.98
69776;DHT22;57049;51.450;-2.516;2022-07-24T01:34:56;17.38;93.03
69776;DHT22;57049;51.450;-2.516;2022-07-24T01:37:21;17.35;93.42
69776;DHT22;57049;51.450;-2.516;2022-07-24T01:39:47;17.38;93.84
69776;DHT22;57049;51.450;-2.516;2022-07-24T01:42:12;17.35;93.83
69776;DHT22;57049;51.450;-2.516;2022-07-24T01:44:38;17.33;93.79
69776;DHT22;57049;51.450;-2.516;2022-07-24T01:47:03;17.36;93.58
69776;DHT22;57049;51.450;-2.516;2022-07-24T01:49:29;17.33;93.70
69776;DHT22;57049;51.450;-2.516;2022-07-24T01:51:54;17.39;93.71
69776;DHT22;57049;51.450;-2.516;2022-07-24T01:54:20;17.36;93.97
69776;DHT22;57049;51.450;-2.516;2022-07-24T01:56:45;17.32;93.88
69776;DHT22;57049;51.450;-2.516;2022-07-24T01:59:11;17.35;93.84
69776;DHT22;57049;51.450;-2.516;2022-07-24T02:01:36;17.32;93.37
69776;DHT22;57049;51.450;-2.516;2022-07-24T02:04:01;17.35;94.05
69776;DHT22;57049;51.450;-2.516;2022-07-24T02:06:27;17.32;93.91
69776;DHT22;57049;51.450;-2.516;2022-07-24T02:08:52;17.38;93.57
69776;DHT22;57049;51.450;-2.516;2022-07-24T02:11:18;17.39;93.49
69776;DHT22;57049;51.450;-2.516;2022-07-24T02:13:44;17.46;93.69
69776;DHT22;57049;51.450;-2.516;2022-07-24T02:16:10;17.43;93.78
69776;DHT22;57049;51.450;-2.516;2022-07-24T02:18:36;17.43;93.52
69776;DHT22;57049;51.450;-2.516;2022-07-24T02:21:01;17.47;93.80
69776;DHT22;57049;51.450;-2.516;2022-07-24T02:23:27;17.42;93.94
69776;DHT22;57049;51.450;-2.516;2022-07-24T02:25:52;17.47;93.83
69776;DHT22;57049;51.450;-2.516;2022-07-24T02:28:18;17.46;93.34
69776;DHT22;57049;51.450;-2.516;2022-07-24T02:30:44;17.43;93.89
69776;DHT22;57049;51.450;-2.516;2022-07-24T02:33:10;17.42;94.32
69776;DHT22;57049;51.450;-2.516;2022-07-24T02:35:36;17.49;94.01
69776;DHT22;57049;51.450;-2.516;2022-07-24T02:38:03;17.46;93.85
69776;DHT22;57049;51.450;-2.516;2022-07-24T02:40:30;17.47;93.85
69776;DHT22;57049;51.450;-2.516;2022-07-24T02:42:56;17.53;93.51
69776;DHT22;57049;51.450;-2.516;2022-07-24T02:45:22;17.50;93.97
69776;DHT22;57049;51.450;-2.516;2022-07-24T02:47:53;17.47;93.82
69776;DHT22;57049;51.450;-2.516;2022-07-24T02:50:20;17.46;94.03
69776;DHT22;57049;51.450;-2.516;2022-07-24T02:52:46;17.49;94.12
69776;DHT22;57049;51.450;-2.516;2022-07-24T02:55:11;17.47;94.08
69776;DHT22;57049;51.450;-2.516;2022-07-24T02:57:37;17.42;94.26
69776;DHT22;57049;51.450;-2.516;2022-07-24T03:00:05;17.40;94.12
69776;DHT22;57049;51.450;-2.516;2022-07-24T03:02:32;17.46;94.17
69776;DHT22;57049;51.450;-2.516;2022-07-24T03:04:57;17.47;94.63
69776;DHT22;57049;51.450;-2.516;2022-07-24T03:07:23;17.49;93.94
69776;DHT22;57049;51.450;-2.516;2022-07-24T03:09:48;17.52;94.41
69776;DHT22;57049;51.450;-2.516;2022-07-24T03:12:14;17.46;94.38
69776;DHT22;57049;51.450;-2.516;2022-07-24T03:14:39;17.52;94.33
69776;DHT22;57049;51.450;-2.516;2022-07-24T03:17:05;17.47;94.28
69776;DHT22;57049;51.450;-2.516;2022-07-24T03:19:30;17.43;94.88
69776;DHT22;57049;51.450;-2.516;2022-07-24T03:21:56;17.40;95.43
69776;DHT22;57049;51.450;-2.516;2022-07-24T03:24:21;17.35;95.76
69776;DHT22;57049;51.450;-2.516;2022-07-24T03:26:46;17.32;95.92
69776;DHT22;57049;51.450;-2.516;2022-07-24T03:29:12;17.30;95.83
69776;DHT22;57049;51.450;-2.516;2022-07-24T03:31:37;17.29;95.49
69776;DHT22;57049;51.450;-2.516;2022-07-24T03:34:03;17.33;95.76
69776;DHT22;57049;51.450;-2.516;2022-07-24T03:36:28;17.29;95.31
69776;DHT22;57049;51.450;-2.516;2022-07-24T03:38:54;17.32;95.51
69776;DHT22;57049;51.450;-2.516;2022-07-24T03:41:19;17.33;95.52
69776;DHT22;57049;51.450;-2.516;2022-07-24T03:43:45;17.32;95.61
69776;DHT22;57049;51.450;-2.516;2022-07-24T03:46:10;17.33;95.34
69776;DHT22;57049;51.450;-2.516;2022-07-24T03:48:35;17.32;94.85
69776;DHT22;57049;51.450;-2.516;2022-07-24T03:51:01;17.39;94.87
69776;DHT22;57049;51.450;-2.516;2022-07-24T03:53:26;17.35;94.84
69776;DHT22;57049;51.450;-2.516;2022-07-24T03:55:52;17.38;95.09
69776;DHT22;57049;51.450;-2.516;2022-07-24T03:58:17;17.38;95.09
69776;DHT22;57049;51.450;-2.516;2022-07-24T04:00:43;17.43;95.09
69776;DHT22;57049;51.450;-2.516;2022-07-24T04:03:08;17.38;95.11
69776;DHT22;57049;51.450;-2.516;2022-07-24T04:05:33;17.40;95.23
69776;DHT22;57049;51.450;-2.516;2022-07-24T04:07:59;17.33;95.48
69776;DHT22;57049;51.450;-2.516;2022-07-24T04:10:24;17.29;95.72
69776;DHT22;57049;51.450;-2.516;2022-07-24T04:12:50;17.30;95.36
69776;DHT22;57049;51.450;-2.516;2022-07-24T04:15:15;17.32;95.78
69776;DHT22;57049;51.450;-2.516;2022-07-24T04:17:41;17.33;95.37
69776;DHT22;57049;51.450;-2.516;2022-07-24T04:20:08;17.29;95.68
69776;DHT22;57049;51.450;-2.516;2022-07-24T04:22:33;17.25;95.94
69776;DHT22;57049;51.450;-2.516;2022-07-24T04:24:59;17.23;95.91
69776;DHT22;57049;51.450;-2.516;2022-07-24T04:27:24;17.22;95.74
69776;DHT22;57049;51.450;-2.516;2022-07-24T04:29:50;17.23;95.82
69776;DHT22;57049;51.450;-2.516;2022-07-24T04:32:15;17.22;95.89
69776;DHT22;57049;51.450;-2.516;2022-07-24T04:34:41;17.25;96.13
69776;DHT22;57049;51.450;-2.516;2022-07-24T04:37:06;17.28;95.70
69776;DHT22;57049;51.450;-2.516;2022-07-24T04:39:31;17.26;95.50
69776;DHT22;57049;51.450;-2.516;2022-07-24T04:41:57;17.25;95.79
69776;DHT22;57049;51.450;-2.516;2022-07-24T04:44:22;17.26;95.82
69776;DHT22;57049;51.450;-2.516;2022-07-24T04:46:48;17.23;95.98
69776;DHT22;57049;51.450;-2.516;2022-07-24T04:49:13;17.23;95.77
69776;DHT22;57049;51.450;-2.516;2022-07-24T04:51:38;17.23;96.06
69776;DHT22;57049;51.450;-2.516;2022-07-24T04:54:04;17.20;95.57
69776;DHT22;57049;51.450;-2.516;2022-07-24T04:56:29;17.20;96.27
69776;DHT22;57049;51.450;-2.516;2022-07-24T04:58:57;17.23;95.95
69776;DHT22;57049;51.450;-2.516;2022-07-24T05:01:23;17.23;95.96
69776;DHT22;57049;51.450;-2.516;2022-07-24T05:03:48;17.23;95.95
69776;DHT22;57049;51.450;-2.516;2022-07-24T05:06:14;17.20;95.67
69776;DHT22;57049;51.450;-2.516;2022-07-24T05:08:39;17.26;95.99
69776;DHT22;57049;51.450;-2.516;2022-07-24T05:11:05;17.25;95.93
69776;DHT22;57049;51.450;-2.516;2022-07-24T05:13:30;17.28;95.97
69776;DHT22;57049;51.450;-2.516;2022-07-24T05:15:56;17.26;95.94
69776;DHT22;57049;51.450;-2.516;2022-07-24T05:18:21;17.25;96.02
69776;DHT22;57049;51.450;-2.516;2022-07-24T05:20:47;17.23;96.03
69776;DHT22;57049;51.450;-2.516;2022-07-24T05:23:12;17.28;95.96
69776;DHT22;57049;51.450;-2.516;2022-07-24T05:25:37;17.26;95.99
69776;DHT22;57049;51.450;-2.516;2022-07-24T05:28:03;17.30;95.75
69776;DHT22;57049;51.450;-2.516;2022-07-24T05:30:29;17.33;95.95
69776;DHT22;57049;51.450;-2.516;2022-07-24T05:32:55;17.43;95.39
69776;DHT22;57049;51.450;-2.516;2022-07-24T05:35:20;17.47;94.91
69776;DHT22;57049;51.450;-2.516;2022-07-24T05:37:46;17.52;95.15
69776;DHT22;57049;51.450;-2.516;2022-07-24T05:40:12;17.54;95.14
69776;DHT22;57049;51.450;-2.516;2022-07-24T05:42:37;17.54;94.90
69776;DHT22;57049;51.450;-2.516;2022-07-24T05:45:03;17.59;95.35
69776;DHT22;57049;51.450;-2.516;2022-07-24T05:47:35;17.62;95.10
69776;DHT22;57049;51.450;-2.516;2022-07-24T05:50:00;17.65;94.89
69776;DHT22;57049;51.450;-2.516;2022-07-24T05:52:26;17.71;94.47
69776;DHT22;57049;51.450;-2.516;2022-07-24T05:54:51;17.67;94.52
69776;DHT22;57049;51.450;-2.516;2022-07-24T05:57:16;17.70;94.48
69776;DHT22;57049;51.450;-2.516;2022-07-24T05:59:42;17.69;94.54
69776;DHT22;57049;51.450;-2.516;2022-07-24T06:02:07;17.71;94.89
69776;DHT22;57049;51.450;-2.516;2022-07-24T06:04:33;17.63;95.05
69776;DHT22;57049;51.450;-2.516;2022-07-24T06:07:00;17.66;94.84
69776;DHT22;57049;51.450;-2.516;2022-07-24T06:09:26;17.69;95.10
69776;DHT22;57049;51.450;-2.516;2022-07-24T06:11:51;17.63;95.17
69776;DHT22;57049;51.450;-2.516;2022-07-24T06:14:17;17.59;94.90
69776;DHT22;57049;51.450;-2.516;2022-07-24T06:16:42;17.69;94.78
69776;DHT22;57049;51.450;-2.516;2022-07-24T06:19:08;17.73;94.73
69776;DHT22;57049;51.450;-2.516;2022-07-24T06:21:33;17.74;95.09
69776;DHT22;57049;51.450;-2.516;2022-07-24T06:23:58;17.73;94.63
69776;DHT22;57049;51.450;-2.516;2022-07-24T06:26:24;17.77;95.00
69776;DHT22;57049;51.450;-2.516;2022-07-24T06:28:49;17.77;94.86
69776;DHT22;57049;51.450;-2.516;2022-07-24T06:31:15;17.84;94.50
69776;DHT22;57049;51.450;-2.516;2022-07-24T06:33:40;17.83;94.27
69776;DHT22;57049;51.450;-2.516;2022-07-24T06:36:06;17.87;94.16
69776;DHT22;57049;51.450;-2.516;2022-07-24T06:38:31;17.81;94.68
69776;DHT22;57049;51.450;-2.516;2022-07-24T06:40:57;17.89;94.48
69776;DHT22;57049;51.450;-2.516;2022-07-24T06:43:22;17.87;94.48
69776;DHT22;57049;51.450;-2.516;2022-07-24T06:45:48;17.87;94.36
69776;DHT22;57049;51.450;-2.516;2022-07-24T06:48:13;17.86;94.30
69776;DHT22;57049;51.450;-2.516;2022-07-24T06:50:39;17.94;94.17
69776;DHT22;57049;51.450;-2.516;2022-07-24T06:53:04;17.98;93.64
69776;DHT22;57049;51.450;-2.516;2022-07-24T06:55:29;18.05;93.80
69776;DHT22;57049;51.450;-2.516;2022-07-24T06:57:55;18.04;94.04
69776;DHT22;57049;51.450;-2.516;2022-07-24T07:00:20;18.04;93.80
69776;DHT22;57049;51.450;-2.516;2022-07-24T07:02:46;18.07;93.37
69776;DHT22;57049;51.450;-2.516;2022-07-24T07:05:12;18.08;93.32
69776;DHT22;57049;51.450;-2.516;2022-07-24T07:07:38;18.22;93.17
69776;DHT22;57049;51.450;-2.516;2022-07-24T07:10:04;18.27;93.09
69776;DHT22;57049;51.450;-2.516;2022-07-24T07:12:30;18.30;92.97
69776;DHT22;57049;51.450;-2.516;2022-07-24T07:14:56;18.25;92.77
69776;DHT22;57049;51.450;-2.516;2022-07-24T07:17:23;18.41;92.69
69776;DHT22;57049;51.450;-2.516;2022-07-24T07:19:49;18.45;92.44
69776;DHT22;57049;51.450;-2.516;2022-07-24T07:22:14;18.51;92.94
69776;DHT22;57049;51.450;-2.516;2022-07-24T07:24:39;18.62;92.00
69776;DHT22;57049;51.450;-2.516;2022-07-24T07:27:05;18.62;91.31
69776;DHT22;57049;51.450;-2.516;2022-07-24T07:29:30;18.61;91.63
69776;DHT22;57049;51.450;-2.516;2022-07-24T07:31:56;18.59;91.54
69776;DHT22;57049;51.450;-2.516;2022-07-24T07:34:21;18.61;91.97
69776;DHT22;57049;51.450;-2.516;2022-07-24T07:36:47;18.69;91.69
69776;DHT22;57049;51.450;-2.516;2022-07-24T07:39:12;18.88;91.04
69776;DHT22;57049;51.450;-2.516;2022-07-24T07:41:38;18.93;91.14
69776;DHT22;57049;51.450;-2.516;2022-07-24T07:44:03;18.83;90.97
69776;DHT22;57049;51.450;-2.516;2022-07-24T07:46:29;18.91;91.18
69776;DHT22;57049;51.450;-2.516;2022-07-24T07:48:55;18.89;91.16
69776;DHT22;57049;51.450;-2.516;2022-07-24T07:51:20;18.82;91.04
69776;DHT22;57049;51.450;-2.516;2022-07-24T07:53:46;18.83;91.44
69776;DHT22;57049;51.450;-2.516;2022-07-24T07:56:11;18.82;90.55
69776;DHT22;57049;51.450;-2.516;2022-07-24T07:58:37;18.85;91.49
69776;DHT22;57049;51.450;-2.516;2022-07-24T08:01:02;18.88;91.16
69776;DHT22;57049;51.450;-2.516;2022-07-24T08:03:28;19.06;90.94
69776;DHT22;57049;51.450;-2.516;2022-07-24T08:05:53;19.22;90.38
69776;DHT22;57049;51.450;-2.516;2022-07-24T08:08:19;19.37;90.14
69776;DHT22;57049;51.450;-2.516;2022-07-24T08:10:44;19.57;89.50
69776;DHT22;57049;51.450;-2.516;2022-07-24T08:13:10;19.58;88.98
69776;DHT22;57049;51.450;-2.516;2022-07-24T08:15:37;19.68;88.27
69776;DHT22;57049;51.450;-2.516;2022-07-24T08:18:03;19.54;88.92
69776;DHT22;57049;51.450;-2.516;2022-07-24T08:20:28;19.53;89.21
69776;DHT22;57049;51.450;-2.516;2022-07-24T08:22:54;19.58;88.21
69776;DHT22;57049;51.450;-2.516;2022-07-24T08:25:20;19.54;88.47
69776;DHT22;57049;51.450;-2.516;2022-07-24T08:27:45;19.53;88.69
69776;DHT22;57049;51.450;-2.516;2022-07-24T08:30:11;19.47;88.74
69776;DHT22;57049;51.450;-2.516;2022-07-24T08:32:37;19.58;88.67
69776;DHT22;57049;51.450;-2.516;2022-07-24T08:35:04;19.63;88.68
69776;DHT22;57049;51.450;-2.516;2022-07-24T08:37:29;19.51;88.47
69776;DHT22;57049;51.450;-2.516;2022-07-24T08:39:55;19.44;88.32
69776;DHT22;57049;51.450;-2.516;2022-07-24T08:42:21;19.46;88.32
69776;DHT22;57049;51.450;-2.516;2022-07-24T08:44:47;19.47;88.06
69776;DHT22;57049;51.450;-2.516;2022-07-24T08:47:14;19.50;87.93
69776;DHT22;57049;51.450;-2.516;2022-07-24T08:49:40;19.53;88.36
69776;DHT22;57049;51.450;-2.516;2022-07-24T08:52:06;19.58;88.27
69776;DHT22;57049;51.450;-2.516;2022-07-24T08:54:35;19.71;88.10
69776;DHT22;57049;51.450;-2.516;2022-07-24T08:57:02;19.85;87.91
69776;DHT22;57049;51.450;-2.516;2022-07-24T08:59:27;19.98;86.73
69776;DHT22;57049;51.450;-2.516;2022-07-24T09:01:53;20.21;86.68
69776;DHT22;57049;51.450;-2.516;2022-07-24T09:07:04;20.21;86.62
69776;DHT22;57049;51.450;-2.516;2022-07-24T09:09:30;20.26;86.51
69776;DHT22;57049;51.450;-2.516;2022-07-24T09:12:15;20.21;85.85
69776;DHT22;57049;51.450;-2.516;2022-07-24T09:14:46;20.60;85.07
69776;DHT22;57049;51.450;-2.516;2022-07-24T09:17:15;20.59;84.44
69776;DHT22;57049;51.450;-2.516;2022-07-24T09:19:52;20.73;83.97
69776;DHT22;57049;51.450;-2.516;2022-07-24T09:32:56;21.15;82.23
69776;DHT22;57049;51.450;-2.516;2022-07-24T09:35:33;20.96;82.94
69776;DHT22;57049;51.450;-2.516;2022-07-24T09:38:00;20.75;84.08
69776;DHT22;57049;51.450;-2.516;2022-07-24T09:40:33;20.77;83.89
69776;DHT22;57049;51.450;-2.516;2022-07-24T09:43:15;20.70;84.02
69776;DHT22;57049;51.450;-2.516;2022-07-24T09:45:55;20.81;84.10
69776;DHT22;57049;51.450;-2.516;2022-07-24T09:48:23;20.87;84.23
69776;DHT22;57049;51.450;-2.516;2022-07-24T09:50:50;20.89;83.55
69776;DHT22;57049;51.450;-2.516;2022-07-24T09:53:21;20.77;83.79
69776;DHT22;57049;51.450;-2.516;2022-07-24T09:56:12;20.66;84.23
69776;DHT22;57049;51.450;-2.516;2022-07-24T09:58:39;20.63;83.28
69776;DHT22;57049;51.450;-2.516;2022-07-24T10:01:07;20.73;83.72
69776;DHT22;57049;51.450;-2.516;2022-07-24T10:03:35;21.00;83.30
69776;DHT22;57049;51.450;-2.516;2022-07-24T10:06:02;20.77;83.11
69776;DHT22;57049;51.450;-2.516;2022-07-24T10:08:30;21.01;82.56
69776;DHT22;57049;51.450;-2.516;2022-07-24T10:10:56;21.07;82.36
69776;DHT22;57049;51.450;-2.516;2022-07-24T10:13:22;20.79;82.82
69776;DHT22;57049;51.450;-2.516;2022-07-24T10:16:32;20.91;83.16
69776;DHT22;57049;51.450;-2.516;2022-07-24T10:18:53;20.99;83.12
69776;DHT22;57049;51.450;-2.516;2022-07-24T10:21:30;20.87;82.76
69776;DHT22;57049;51.450;-2.516;2022-07-24T10:27:03;20.33;84.14
69776;DHT22;57049;51.450;-2.516;2022-07-24T10:29:33;20.19;84.64
69776;DHT22;57049;51.450;-2.516;2022-07-24T10:32:00;20.05;84.96
69776;DHT22;57049;51.450;-2.516;2022-07-24T10:34:50;20.16;85.06
69776;DHT22;57049;51.450;-2.516;2022-07-24T10:37:59;20.14;85.72
69776;DHT22;57049;51.450;-2.516;2022-07-24T10:40:48;20.15;85.28
69776;DHT22;57049;51.450;-2.516;2022-07-24T10:43:16;20.09;85.31
69776;DHT22;57049;51.450;-2.516;2022-07-24T10:56:24;20.56;83.99
69776;DHT22;57049;51.450;-2.516;2022-07-24T11:01:49;20.80;82.74
69776;DHT22;57049;51.450;-2.516;2022-07-24T11:09:16;20.81;82.65
69776;DHT22;57049;51.450;-2.516;2022-07-24T11:20:16;20.72;83.56
69776;DHT22;57049;51.450;-2.516;2022-07-24T11:25:14;20.28;85.15
69776;DHT22;57049;51.450;-2.516;2022-07-24T11:27:54;20.15;85.05
69776;DHT22;57049;51.450;-2.516;2022-07-24T11:30:24;20.15;85.41
69776;DHT22;57049;51.450;-2.516;2022-07-24T11:32:50;19.95;86.04
69776;DHT22;57049;51.450;-2.516;2022-07-24T11:35:16;19.98;86.05
69776;DHT22;57049;51.450;-2.516;2022-07-24T11:37:43;19.99;86.06
69776;DHT22;57049;51.450;-2.516;2022-07-24T11:40:13;20.02;85.92
69776;DHT22;57049;51.450;-2.516;2022-07-24T11:42:39;19.99;86.26
69776;DHT22;57049;51.450;-2.516;2022-07-24T11:45:05;19.94;85.84
69776;DHT22;57049;51.450;-2.516;2022-07-24T11:47:30;20.01;86.19
69776;DHT22;57049;51.450;-2.516;2022-07-24T11:50:02;20.07;85.97
69776;DHT22;57049;51.450;-2.516;2022-07-24T11:52:37;20.01;85.82
69776;DHT22;57049;51.450;-2.516;2022-07-24T11:55:12;19.98;86.13
69776;DHT22;57049;51.450;-2.516;2022-07-24T11:57:40;19.91;86.19
69776;DHT22;57049;51.450;-2.516;2022-07-24T12:00:08;19.89;86.35
69776;DHT22;57049;51.450;-2.516;2022-07-24T12:02:35;19.87;86.28
69776;DHT22;57049;51.450;-2.516;2022-07-24T12:05:01;20.14;85.62
69776;DHT22;57049;51.450;-2.516;2022-07-24T12:07:27;20.16;85.09
69776;DHT22;57049;51.450;-2.516;2022-07-24T12:09:59;20.39;84.56
69776;DHT22;57049;51.450;-2.516;2022-07-24T12:15:00;20.35;83.79
69776;DHT22;57049;51.450;-2.516;2022-07-24T12:17:27;20.63;83.81
69776;DHT22;57049;51.450;-2.516;2022-07-24T12:19:55;20.93;82.78
69776;DHT22;57049;51.450;-2.516;2022-07-24T12:22:23;21.20;81.43
69776;DHT22;57049;51.450;-2.516;2022-07-24T12:24:50;21.20;80.81
69776;DHT22;57049;51.450;-2.516;2022-07-24T12:27:35;21.30;80.28
69776;DHT22;57049;51.450;-2.516;2022-07-24T12:30:01;21.20;80.17
69776;DHT22;57049;51.450;-2.516;2022-07-24T12:32:26;21.24;80.10
69776;DHT22;57049;51.450;-2.516;2022-07-24T12:34:52;21.26;79.66
69776;DHT22;57049;51.450;-2.516;2022-07-24T12:37:19;21.52;79.93
69776;DHT22;57049;51.450;-2.516;2022-07-24T12:39:49;21.62;78.82
69776;DHT22;57049;51.450;-2.516;2022-07-24T12:42:16;21.93;78.59
69776;DHT22;57049;51.450;-2.516;2022-07-24T12:44:43;22.06;77.75
69776;DHT22;57049;51.450;-2.516;2022-07-24T12:47:13;22.35;76.96
69776;DHT22;57049;51.450;-2.516;2022-07-24T12:49:43;22.61;75.79
69776;DHT22;57049;51.450;-2.516;2022-07-24T12:52:23;22.63;74.40
69776;DHT22;57049;51.450;-2.516;2022-07-24T12:54:50;22.50;75.03
69776;DHT22;57049;51.450;-2.516;2022-07-24T12:57:16;22.54;75.38
69776;DHT22;57049;51.450;-2.516;2022-07-24T12:59:47;22.81;75.12
69776;DHT22;57049;51.450;-2.516;2022-07-24T13:02:17;23.00;73.71
69776;DHT22;57049;51.450;-2.516;2022-07-24T13:04:48;23.05;72.99
69776;DHT22;57049;51.450;-2.516;2022-07-24T13:07:16;22.97;73.32
69776;DHT22;57049;51.450;-2.516;2022-07-24T13:09:42;22.95;73.12
69776;DHT22;57049;51.450;-2.516;2022-07-24T13:12:08;23.41;72.90
69776;DHT22;57049;51.450;-2.516;2022-07-24T13:14:34;23.85;71.59
69776;DHT22;57049;51.450;-2.516;2022-07-24T13:17:09;24.07;69.64
69776;DHT22;57049;51.450;-2.516;2022-07-24T13:19:40;24.60;67.90
69776;DHT22;57049;51.450;-2.516;2022-07-24T13:22:06;24.48;66.69
69776;DHT22;57049;51.450;-2.516;2022-07-24T13:24:31;24.84;68.13
69776;DHT22;57049;51.450;-2.516;2022-07-24T13:27:03;24.61;67.62
69776;DHT22;57049;51.450;-2.516;2022-07-24T13:29:29;25.14;66.26
69776;DHT22;57049;51.450;-2.516;2022-07-24T13:31:54;25.47;65.90
69776;DHT22;57049;51.450;-2.516;2022-07-24T13:34:20;25.53;64.57
69776;DHT22;57049;51.450;-2.516;2022-07-24T13:36:46;25.71;63.63
69776;DHT22;57049;51.450;-2.516;2022-07-24T13:39:12;26.05;63.20
69776;DHT22;57049;51.450;-2.516;2022-07-24T13:41:38;25.98;62.25
69776;DHT22;57049;51.450;-2.516;2022-07-24T13:44:04;25.84;61.82
69776;DHT22;57049;51.450;-2.516;2022-07-24T13:46:31;25.77;62.63
69776;DHT22;57049;51.450;-2.516;2022-07-24T13:48:57;25.90;62.62
69776;DHT22;57049;51.450;-2.516;2022-07-24T13:51:22;25.23;64.06
69776;DHT22;57049;51.450;-2.516;2022-07-24T13:53:49;25.45;62.78
69776;DHT22;57049;51.450;-2.516;2022-07-24T13:56:14;25.86;61.38
69776;DHT22;57049;51.450;-2.516;2022-07-24T13:58:40;25.74;63.35
69776;DHT22;57049;51.450;-2.516;2022-07-24T14:01:07;25.40;62.40
69776;DHT22;57049;51.450;-2.516;2022-07-24T14:03:34;25.25;63.75
69776;DHT22;57049;51.450;-2.516;2022-07-24T14:05:59;25.30;62.05
69776;DHT22;57049;51.450;-2.516;2022-07-24T14:08:27;25.56;62.86
69776;DHT22;57049;51.450;-2.516;2022-07-24T14:10:53;25.04;63.44
69776;DHT22;57049;51.450;-2.516;2022-07-24T14:13:19;25.12;63.32
69776;DHT22;57049;51.450;-2.516;2022-07-24T14:15:45;25.32;63.42
69776;DHT22;57049;51.450;-2.516;2022-07-24T14:18:11;25.71;62.72
69776;DHT22;57049;51.450;-2.516;2022-07-24T14:20:37;25.97;61.95
69776;DHT22;57049;51.450;-2.516;2022-07-24T14:23:02;26.00;61.24
69776;DHT22;57049;51.450;-2.516;2022-07-24T14:25:28;25.77;62.18
69776;DHT22;57049;51.450;-2.516;2022-07-24T14:27:53;25.09;62.90
69776;DHT22;57049;51.450;-2.516;2022-07-24T14:30:19;25.04;62.35
69776;DHT22;57049;51.450;-2.516;2022-07-24T14:32:44;25.65;62.31
69776;DHT22;57049;51.450;-2.516;2022-07-24T14:35:10;25.93;60.01
69776;DHT22;57049;51.450;-2.516;2022-07-24T14:37:36;26.13;59.45
69776;DHT22;57049;51.450;-2.516;2022-07-24T14:40:04;26.21;61.11
69776;DHT22;57049;51.450;-2.516;2022-07-24T14:42:30;26.65;59.05
69776;DHT22;57049;51.450;-2.516;2022-07-24T14:44:55;26.75;58.85
69776;DHT22;57049;51.450;-2.516;2022-07-24T14:47:21;26.98;58.39
69776;DHT22;57049;51.450;-2.516;2022-07-24T14:49:46;26.16;59.13
69776;DHT22;57049;51.450;-2.516;2022-07-24T14:52:12;26.53;58.49
69776;DHT22;57049;51.450;-2.516;2022-07-24T14:54:39;25.91;60.63
69776;DHT22;57049;51.450;-2.516;2022-07-24T14:57:04;25.65;61.51
69776;DHT22;57049;51.450;-2.516;2022-07-24T14:59:30;25.28;61.70
69776;DHT22;57049;51.450;-2.516;2022-07-24T15:01:55;24.96;63.97
69776;DHT22;57049;51.450;-2.516;2022-07-24T15:04:21;24.98;63.26
69776;DHT22;57049;51.450;-2.516;2022-07-24T15:06:46;24.65;63.75
69776;DHT22;57049;51.450;-2.516;2022-07-24T15:09:11;24.27;64.87
69776;DHT22;57049;51.450;-2.516;2022-07-24T15:11:37;24.13;65.57
69776;DHT22;57049;51.450;-2.516;2022-07-24T15:14:03;24.30;64.88
69776;DHT22;57049;51.450;-2.516;2022-07-24T15:16:29;24.89;63.87
69776;DHT22;57049;51.450;-2.516;2022-07-24T15:18:55;24.98;62.48
69776;DHT22;57049;51.450;-2.516;2022-07-24T15:21:20;24.92;63.59
69776;DHT22;57049;51.450;-2.516;2022-07-24T15:23:45;25.60;63.94
69776;DHT22;57049;51.450;-2.516;2022-07-24T15:26:11;26.27;61.30
69776;DHT22;57049;51.450;-2.516;2022-07-24T15:28:36;26.61;59.96
69776;DHT22;57049;51.450;-2.516;2022-07-24T15:31:02;26.05;60.91
69776;DHT22;57049;51.450;-2.516;2022-07-24T15:33:27;26.17;61.05
69776;DHT22;57049;51.450;-2.516;2022-07-24T15:35:52;25.66;61.92
69776;DHT22;57049;51.450;-2.516;2022-07-24T15:38:18;25.28;62.71
69776;DHT22;57049;51.450;-2.516;2022-07-24T15:40:45;24.96;64.09
69776;DHT22;57049;51.450;-2.516;2022-07-24T15:43:10;24.43;66.21
69776;DHT22;57049;51.450;-2.516;2022-07-24T15:45:36;24.63;65.81
69776;DHT22;57049;51.450;-2.516;2022-07-24T15:48:02;24.54;65.21
69776;DHT22;57049;51.450;-2.516;2022-07-24T15:50:28;24.27;66.14
69776;DHT22;57049;51.450;-2.516;2022-07-24T15:52:54;24.10;66.93
69776;DHT22;57049;51.450;-2.516;2022-07-24T15:55:20;24.13;66.90
69776;DHT22;57049;51.450;-2.516;2022-07-24T15:57:45;23.80;68.03
69776;DHT22;57049;51.450;-2.516;2022-07-24T16:00:11;23.92;68.19
69776;DHT22;57049;51.450;-2.516;2022-07-24T16:02:37;23.59;68.47